PWSweather.com
Personal Weather Stations
Station Observations
WHHZ1080
Hladke ZivoticeCZ 742 47

Hladke ZivoticeCZ 742 47

Lat: 49.6818201, Lon: 17.94963610000002

Elevation: 282

Station Type: Davis Vantage Vue

http://wh1080.m-zone.cz/

Latest ConditionsUpdated 9:50:01 PM GMT+01:01 Wednesday, Apr 24, 2019
Currently Today's Max Today's Min Today's Average
Temperature 60.6°F15.9°C 69.1°F20.6°C 46.4°F8.0°C 58.8°F14.9°C
Dew Point 51.2°F10.7°C 55.5°F13.1°C 42.7°F5.9°C 49.3°F9.6°C
Winds 4.0 mph SSE6.4 kmh SSE 11.0 mph -17.7 kmh - - 4.7 mph 7.6 kmh
Wind Gusts 7.0 mph11.3 kmh 26.0 mph41.8 kmh - -
Humidity 71% 89% 59% 71%
Pressure 29.94 in1013.9 mb 29.98 in1015.2 mb 29.94 in1013.9 mb -
Hour Temp Dew Point Humidity Winds Wind Gusts Pressure Precip Precip Rate Daily Precip Total
09:50 PM 60.6°F15.9°C 51.2°F10.7°C 71% 4.0 mph SSE6.4 kmh SSE 7.0 mph11.3 kmh 29.94 in1013.9 mb 0.00 in0.0 mm 0.00 in0.0 mm 0.00 in0.0 mm
09:45 PM 60.6°F15.9°C 51.2°F10.7°C 71% 4.0 mph S6.4 kmh S 9.0 mph14.5 kmh 29.94 in1013.9 mb 0.00 in0.0 mm 0.00 in0.0 mm 0.00 in0.0 mm
09:40 PM 60.8°F16.0°C 51.3°F10.7°C 71% 4.0 mph S6.4 kmh S 9.0 mph14.5 kmh 29.94 in1013.9 mb 0.00 in0.0 mm 0.00 in0.0 mm 0.00 in0.0 mm
09:35 PM 61.0°F16.1°C 51.5°F10.8°C 71% 4.0 mph S6.4 kmh S 9.0 mph14.5 kmh 29.95 in1014.2 mb 0.00 in0.0 mm 0.00 in0.0 mm 0.00 in0.0 mm
09:30 PM 61.0°F16.1°C 51.5°F10.8°C 71% 4.0 mph S6.4 kmh S 8.0 mph12.9 kmh 29.94 in1013.9 mb 0.00 in0.0 mm 0.00 in0.0 mm 0.00 in0.0 mm
09:25 PM 61.0°F16.1°C 51.5°F10.8°C 71% 4.0 mph S6.4 kmh S 10.0 mph16.1 kmh 29.94 in1013.9 mb 0.00 in0.0 mm 0.00 in0.0 mm 0.00 in0.0 mm
09:20 PM 61.0°F16.1°C 51.5°F10.8°C 71% 3.0 mph S4.8 kmh S 10.0 mph16.1 kmh 29.94 in1013.9 mb 0.00 in0.0 mm 0.00 in0.0 mm 0.00 in0.0 mm
09:15 PM 60.4°F15.8°C 51.0°F10.6°C 71% 2.0 mph S3.2 kmh S 9.0 mph14.5 kmh 29.95 in1014.2 mb 0.00 in0.0 mm 0.00 in0.0 mm 0.00 in0.0 mm
09:10 PM 60.4°F15.8°C 51.0°F10.6°C 71% 2.0 mph S3.2 kmh S 8.0 mph12.9 kmh 29.94 in1013.9 mb 0.00 in0.0 mm 0.00 in0.0 mm 0.00 in0.0 mm
09:05 PM 60.4°F15.8°C 51.0°F10.6°C 71% 3.0 mph S4.8 kmh S 8.0 mph12.9 kmh 29.95 in1014.2 mb 0.00 in0.0 mm 0.00 in0.0 mm 0.00 in0.0 mm
09:00 PM 60.4°F15.8°C 51.0°F10.6°C 71% 3.0 mph S4.8 kmh S 8.0 mph12.9 kmh 29.94 in1013.9 mb 0.00 in0.0 mm 0.00 in0.0 mm 0.00 in0.0 mm
08:55 PM 60.6°F15.9°C 51.2°F10.7°C 71% 3.0 mph S4.8 kmh S 9.0 mph14.5 kmh 29.95 in1014.2 mb 0.00 in0.0 mm 0.00 in0.0 mm 0.00 in0.0 mm
08:50 PM 60.8°F16.0°C 51.3°F10.7°C 71% 3.0 mph S4.8 kmh S 9.0 mph14.5 kmh 29.95 in1014.2 mb 0.00 in0.0 mm 0.00 in0.0 mm 0.00 in0.0 mm
08:45 PM 61.0°F16.1°C 51.1°F10.6°C 70% 4.0 mph SSE6.4 kmh SSE 8.0 mph12.9 kmh 29.95 in1014.2 mb 0.00 in0.0 mm 0.00 in0.0 mm 0.00 in0.0 mm
08:40 PM 61.2°F16.2°C 51.3°F10.7°C 70% 4.0 mph SSE6.4 kmh SSE 10.0 mph16.1 kmh 29.95 in1014.2 mb 0.00 in0.0 mm 0.00 in0.0 mm 0.00 in0.0 mm
08:35 PM 61.5°F16.4°C 51.6°F10.9°C 70% 4.0 mph S6.4 kmh S 10.0 mph16.1 kmh 29.95 in1014.2 mb 0.00 in0.0 mm 0.00 in0.0 mm 0.00 in0.0 mm
08:30 PM 61.3°F16.3°C 51.5°F10.8°C 70% 4.0 mph S6.4 kmh S 9.0 mph14.5 kmh 29.95 in1014.2 mb 0.00 in0.0 mm 0.00 in0.0 mm 0.00 in0.0 mm
08:25 PM 61.0°F16.1°C 51.1°F10.6°C 70% 4.0 mph SSE6.4 kmh SSE 11.0 mph17.7 kmh 29.95 in1014.2 mb 0.00 in0.0 mm 0.00 in0.0 mm 0.00 in0.0 mm
08:20 PM 61.2°F16.2°C 51.3°F10.7°C 70% 4.0 mph SSE6.4 kmh SSE 11.0 mph17.7 kmh 29.95 in1014.2 mb 0.00 in0.0 mm 0.00 in0.0 mm 0.00 in0.0 mm
08:15 PM 61.2°F16.2°C 51.3°F10.7°C 70% 4.0 mph S6.4 kmh S 11.0 mph17.7 kmh 29.95 in1014.2 mb 0.00 in0.0 mm 0.00 in0.0 mm 0.00 in0.0 mm
08:10 PM 61.2°F16.2°C 51.3°F10.7°C 70% 5.0 mph SSE8.0 kmh SSE 11.0 mph17.7 kmh 29.95 in1014.2 mb 0.00 in0.0 mm 0.00 in0.0 mm 0.00 in0.0 mm
08:05 PM 61.3°F16.3°C 51.5°F10.8°C 70% 5.0 mph SSE8.0 kmh SSE 11.0 mph17.7 kmh 29.95 in1014.2 mb 0.00 in0.0 mm 0.00 in0.0 mm 0.00 in0.0 mm
08:00 PM 61.2°F16.2°C 51.3°F10.7°C 70% 4.0 mph SSE6.4 kmh SSE 12.0 mph19.3 kmh 29.95 in1014.2 mb 0.00 in0.0 mm 0.00 in0.0 mm 0.00 in0.0 mm
07:55 PM 61.2°F16.2°C 51.3°F10.7°C 70% 4.0 mph SSE6.4 kmh SSE 12.0 mph19.3 kmh 29.95 in1014.2 mb 0.00 in0.0 mm 0.00 in0.0 mm 0.00 in0.0 mm
07:50 PM 61.2°F16.2°C 51.3°F10.7°C 70% 4.0 mph SSE6.4 kmh SSE 10.0 mph16.1 kmh 29.95 in1014.2 mb 0.00 in0.0 mm 0.00 in0.0 mm 0.00 in0.0 mm
07:45 PM 61.2°F16.2°C 51.3°F10.7°C 70% 4.0 mph SSE6.4 kmh SSE 9.0 mph14.5 kmh 29.95 in1014.2 mb 0.00 in0.0 mm 0.00 in0.0 mm 0.00 in0.0 mm
07:40 PM 61.2°F16.2°C 51.3°F10.7°C 70% 4.0 mph SE6.4 kmh SE 9.0 mph14.5 kmh 29.95 in1014.2 mb 0.00 in0.0 mm 0.00 in0.0 mm 0.00 in0.0 mm
07:35 PM 61.2°F16.2°C 51.3°F10.7°C 70% 4.0 mph SE6.4 kmh SE 11.0 mph17.7 kmh 29.95 in1014.2 mb 0.00 in0.0 mm 0.00 in0.0 mm 0.00 in0.0 mm
07:30 PM 61.3°F16.3°C 51.5°F10.8°C 70% 4.0 mph SE6.4 kmh SE 13.0 mph20.9 kmh 29.95 in1014.2 mb 0.00 in0.0 mm 0.00 in0.0 mm 0.00 in0.0 mm
07:25 PM 61.3°F16.3°C 51.5°F10.8°C 70% 4.0 mph SSE6.4 kmh SSE 13.0 mph20.9 kmh 29.95 in1014.2 mb 0.00 in0.0 mm 0.00 in0.0 mm 0.00 in0.0 mm
07:20 PM 61.3°F16.3°C 51.1°F10.6°C 69% 3.0 mph SSE4.8 kmh SSE 9.0 mph14.5 kmh 29.95 in1014.2 mb 0.00 in0.0 mm 0.00 in0.0 mm 0.00 in0.0 mm
07:15 PM 61.3°F16.3°C 51.1°F10.6°C 69% 4.0 mph SSE6.4 kmh SSE 7.0 mph11.3 kmh 29.95 in1014.2 mb 0.00 in0.0 mm 0.00 in0.0 mm 0.00 in0.0 mm
07:10 PM 61.5°F16.4°C 51.3°F10.7°C 69% 4.0 mph SSE6.4 kmh SSE 10.0 mph16.1 kmh 29.95 in1014.2 mb 0.00 in0.0 mm 0.00 in0.0 mm 0.00 in0.0 mm
07:05 PM 61.9°F16.6°C 51.6°F10.9°C 69% 4.0 mph SSE6.4 kmh SSE 12.0 mph19.3 kmh 29.95 in1014.2 mb 0.00 in0.0 mm 0.00 in0.0 mm 0.00 in0.0 mm
07:00 PM 62.1°F16.7°C 51.4°F10.8°C 68% 4.0 mph SSE6.4 kmh SSE 12.0 mph19.3 kmh 29.95 in1014.2 mb 0.00 in0.0 mm 0.00 in0.0 mm 0.00 in0.0 mm
06:55 PM 62.2°F16.8°C 51.5°F10.8°C 68% 4.0 mph SSE6.4 kmh SSE 8.0 mph12.9 kmh 29.95 in1014.2 mb 0.00 in0.0 mm 0.00 in0.0 mm 0.00 in0.0 mm
06:50 PM 62.4°F16.9°C 51.3°F10.7°C 67% 4.0 mph SE6.4 kmh SE 8.0 mph12.9 kmh 29.95 in1014.2 mb 0.00 in0.0 mm 0.00 in0.0 mm 0.00 in0.0 mm
06:45 PM 62.6°F17.0°C 51.5°F10.8°C 67% 5.0 mph SE8.0 kmh SE 11.0 mph17.7 kmh 29.95 in1014.2 mb 0.00 in0.0 mm 0.00 in0.0 mm 0.00 in0.0 mm
06:40 PM 63.0°F17.2°C 51.8°F11.0°C 67% 4.0 mph SE6.4 kmh SE 12.0 mph19.3 kmh 29.95 in1014.2 mb 0.00 in0.0 mm 0.00 in0.0 mm 0.00 in0.0 mm
06:35 PM 63.0°F17.2°C 51.8°F11.0°C 67% 4.0 mph SE6.4 kmh SE 12.0 mph19.3 kmh 29.95 in1014.2 mb 0.00 in0.0 mm 0.00 in0.0 mm 0.00 in0.0 mm
06:30 PM 63.0°F17.2°C 51.8°F11.0°C 67% 5.0 mph SE8.0 kmh SE 13.0 mph20.9 kmh 29.95 in1014.2 mb 0.00 in0.0 mm 0.00 in0.0 mm 0.00 in0.0 mm
06:25 PM 63.1°F17.3°C 52.0°F11.1°C 67% 5.0 mph SE8.0 kmh SE 13.0 mph20.9 kmh 29.95 in1014.2 mb 0.00 in0.0 mm 0.00 in0.0 mm 0.00 in0.0 mm
06:20 PM 63.5°F17.5°C 51.9°F11.1°C 66% 5.0 mph SE8.0 kmh SE 11.0 mph17.7 kmh 29.95 in1014.2 mb 0.00 in0.0 mm 0.00 in0.0 mm 0.00 in0.0 mm
06:15 PM 63.7°F17.6°C 52.1°F11.2°C 66% 5.0 mph SE8.0 kmh SE 12.0 mph19.3 kmh 29.95 in1014.2 mb 0.00 in0.0 mm 0.00 in0.0 mm 0.00 in0.0 mm
06:10 PM 63.9°F17.7°C 52.3°F11.3°C 66% 5.0 mph SE8.0 kmh SE 12.0 mph19.3 kmh 29.95 in1014.2 mb 0.00 in0.0 mm 0.00 in0.0 mm 0.00 in0.0 mm
06:05 PM 64.2°F17.9°C 52.2°F11.2°C 65% 5.0 mph SE8.0 kmh SE 11.0 mph17.7 kmh 29.95 in1014.2 mb 0.00 in0.0 mm 0.00 in0.0 mm 0.00 in0.0 mm
06:00 PM 64.0°F17.8°C 52.0°F11.1°C 65% 4.0 mph SE6.4 kmh SE 10.0 mph16.1 kmh 29.95 in1014.2 mb 0.00 in0.0 mm 0.00 in0.0 mm 0.00 in0.0 mm
05:55 PM 64.0°F17.8°C 52.0°F11.1°C 65% 4.0 mph SE6.4 kmh SE 9.0 mph14.5 kmh 29.95 in1014.2 mb 0.00 in0.0 mm 0.00 in0.0 mm 0.00 in0.0 mm
05:50 PM 64.0°F17.8°C 52.0°F11.1°C 65% 4.0 mph SE6.4 kmh SE 11.0 mph17.7 kmh 29.95 in1014.2 mb 0.00 in0.0 mm 0.00 in0.0 mm 0.00 in0.0 mm
05:45 PM 64.2°F17.9°C 52.2°F11.2°C 65% 5.0 mph SSE8.0 kmh SSE 11.0 mph17.7 kmh 29.95 in1014.2 mb 0.00 in0.0 mm 0.00 in0.0 mm 0.00 in0.0 mm
05:40 PM 64.6°F18.1°C 52.5°F11.4°C 65% 6.0 mph S9.7 kmh S 10.0 mph16.1 kmh 29.95 in1014.2 mb 0.00 in0.0 mm 0.00 in0.0 mm 0.00 in0.0 mm
05:35 PM 64.8°F18.2°C 52.3°F11.3°C 64% 6.0 mph SSE9.7 kmh SSE 12.0 mph19.3 kmh 29.95 in1014.2 mb 0.00 in0.0 mm 0.00 in0.0 mm 0.00 in0.0 mm
05:30 PM 64.9°F18.3°C 52.5°F11.4°C 64% 6.0 mph SSE9.7 kmh SSE 12.0 mph19.3 kmh 29.95 in1014.2 mb 0.00 in0.0 mm 0.00 in0.0 mm 0.00 in0.0 mm
05:25 PM 64.9°F18.3°C 52.5°F11.4°C 64% 7.0 mph SE11.3 kmh SE 13.0 mph20.9 kmh 29.95 in1014.2 mb 0.00 in0.0 mm 0.00 in0.0 mm 0.00 in0.0 mm
05:20 PM 65.3°F18.5°C 52.4°F11.3°C 63% 8.0 mph SE12.9 kmh SE 14.0 mph22.5 kmh 29.95 in1014.2 mb 0.00 in0.0 mm 0.00 in0.0 mm 0.00 in0.0 mm
05:15 PM 65.5°F18.6°C 52.5°F11.4°C 63% 8.0 mph SE12.9 kmh SE 14.0 mph22.5 kmh 29.95 in1014.2 mb 0.00 in0.0 mm 0.00 in0.0 mm 0.00 in0.0 mm
05:10 PM 65.5°F18.6°C 52.1°F11.2°C 62% 7.0 mph SE11.3 kmh SE 16.0 mph25.7 kmh 29.95 in1014.2 mb 0.00 in0.0 mm 0.00 in0.0 mm 0.00 in0.0 mm
05:05 PM 65.7°F18.7°C 52.7°F11.5°C 63% 6.0 mph SE9.7 kmh SE 16.0 mph25.7 kmh 29.95 in1014.2 mb 0.00 in0.0 mm 0.00 in0.0 mm 0.00 in0.0 mm
05:00 PM 65.8°F18.8°C 52.5°F11.4°C 62% 6.0 mph SE9.7 kmh SE 14.0 mph22.5 kmh 29.95 in1014.2 mb 0.00 in0.0 mm 0.00 in0.0 mm 0.00 in0.0 mm
04:55 PM 66.0°F18.9°C 53.5°F11.9°C 64% 6.0 mph SE9.7 kmh SE 14.0 mph22.5 kmh 29.95 in1014.2 mb 0.00 in0.0 mm 0.00 in0.0 mm 0.00 in0.0 mm
04:50 PM 66.4°F19.1°C 53.0°F11.7°C 62% 6.0 mph SE9.7 kmh SE 14.0 mph22.5 kmh 29.95 in1014.2 mb 0.00 in0.0 mm 0.00 in0.0 mm 0.00 in0.0 mm
04:45 PM 66.7°F19.3°C 53.7°F12.1°C 63% 6.0 mph SE9.7 kmh SE 10.0 mph16.1 kmh 29.95 in1014.2 mb 0.00 in0.0 mm 0.00 in0.0 mm 0.00 in0.0 mm
04:40 PM 66.7°F19.3°C 53.7°F12.1°C 63% 6.0 mph SE9.7 kmh SE 9.0 mph14.5 kmh 29.95 in1014.2 mb 0.00 in0.0 mm 0.00 in0.0 mm 0.00 in0.0 mm
04:35 PM 66.7°F19.3°C 53.7°F12.1°C 63% 7.0 mph SSE11.3 kmh SSE 14.0 mph22.5 kmh 29.95 in1014.2 mb 0.00 in0.0 mm 0.00 in0.0 mm 0.00 in0.0 mm
04:30 PM 66.6°F19.2°C 53.1°F11.7°C 62% 9.0 mph S14.5 kmh S 15.0 mph24.1 kmh 29.95 in1014.2 mb 0.00 in0.0 mm 0.00 in0.0 mm 0.00 in0.0 mm
04:25 PM 66.4°F19.1°C 53.4°F11.9°C 63% 9.0 mph S14.5 kmh S 15.0 mph24.1 kmh 29.95 in1014.2 mb 0.00 in0.0 mm 0.00 in0.0 mm 0.00 in0.0 mm
04:20 PM 66.6°F19.2°C 52.7°F11.5°C 61% 8.0 mph S12.9 kmh S 21.0 mph33.8 kmh 29.95 in1014.2 mb 0.00 in0.0 mm 0.00 in0.0 mm 0.00 in0.0 mm
04:15 PM 66.7°F19.3°C 53.3°F11.8°C 62% 7.0 mph SSE11.3 kmh SSE 21.0 mph33.8 kmh 29.95 in1014.2 mb 0.00 in0.0 mm 0.00 in0.0 mm 0.00 in0.0 mm
04:10 PM 66.6°F19.2°C 54.4°F12.4°C 65% 7.0 mph S11.3 kmh S 16.0 mph25.7 kmh 29.95 in1014.2 mb 0.00 in0.0 mm 0.00 in0.0 mm 0.00 in0.0 mm
04:05 PM 66.6°F19.2°C 53.6°F12.0°C 63% 6.0 mph S9.7 kmh S 16.0 mph25.7 kmh 29.95 in1014.2 mb 0.00 in0.0 mm 0.00 in0.0 mm 0.00 in0.0 mm
04:00 PM 66.4°F19.1°C 53.8°F12.1°C 64% 6.0 mph S9.7 kmh S 13.0 mph20.9 kmh 29.95 in1014.2 mb 0.00 in0.0 mm 0.00 in0.0 mm 0.00 in0.0 mm
03:55 PM 66.4°F19.1°C 53.8°F12.1°C 64% 7.0 mph S11.3 kmh S 13.0 mph20.9 kmh 29.95 in1014.2 mb 0.00 in0.0 mm 0.00 in0.0 mm 0.00 in0.0 mm
03:50 PM 66.4°F19.1°C 53.4°F11.9°C 63% 8.0 mph S12.9 kmh S 15.0 mph24.1 kmh 29.95 in1014.2 mb 0.00 in0.0 mm 0.00 in0.0 mm 0.00 in0.0 mm
03:45 PM 66.4°F19.1°C 53.4°F11.9°C 63% 7.0 mph S11.3 kmh S 18.0 mph29.0 kmh 29.96 in1014.6 mb 0.00 in0.0 mm 0.00 in0.0 mm 0.00 in0.0 mm
03:40 PM 66.4°F19.1°C 53.0°F11.7°C 62% 7.0 mph S11.3 kmh S 18.0 mph29.0 kmh 29.95 in1014.2 mb 0.00 in0.0 mm 0.00 in0.0 mm 0.00 in0.0 mm
03:35 PM 66.4°F19.1°C 53.4°F11.9°C 63% 8.0 mph S12.9 kmh S 14.0 mph22.5 kmh 29.96 in1014.6 mb 0.00 in0.0 mm 0.00 in0.0 mm 0.00 in0.0 mm
03:30 PM 66.4°F19.1°C 53.4°F11.9°C 63% 8.0 mph S12.9 kmh S 18.0 mph29.0 kmh 29.95 in1014.2 mb 0.00 in0.0 mm 0.00 in0.0 mm 0.00 in0.0 mm
03:25 PM 66.4°F19.1°C 53.4°F11.9°C 63% 9.0 mph S14.5 kmh S 18.0 mph29.0 kmh 29.95 in1014.2 mb 0.00 in0.0 mm 0.00 in0.0 mm 0.00 in0.0 mm
03:20 PM 66.4°F19.1°C 53.0°F11.7°C 62% 9.0 mph S14.5 kmh S 14.0 mph22.5 kmh 29.95 in1014.2 mb 0.00 in0.0 mm 0.00 in0.0 mm 0.00 in0.0 mm
03:15 PM 66.4°F19.1°C 53.4°F11.9°C 63% 9.0 mph S14.5 kmh S 14.0 mph22.5 kmh 29.95 in1014.2 mb 0.00 in0.0 mm 0.00 in0.0 mm 0.00 in0.0 mm
03:10 PM 66.4°F19.1°C 53.0°F11.7°C 62% 9.0 mph S14.5 kmh S 16.0 mph25.7 kmh 29.95 in1014.2 mb 0.00 in0.0 mm 0.00 in0.0 mm 0.00 in0.0 mm
03:05 PM 66.2°F19.0°C 52.8°F11.6°C 62% 10.0 mph S16.1 kmh S 16.0 mph25.7 kmh 29.96 in1014.6 mb 0.00 in0.0 mm 0.00 in0.0 mm 0.00 in0.0 mm
03:00 PM 66.4°F19.1°C 53.0°F11.7°C 62% 9.0 mph S14.5 kmh S 18.0 mph29.0 kmh 29.96 in1014.6 mb 0.00 in0.0 mm 0.00 in0.0 mm 0.00 in0.0 mm
02:55 PM 66.7°F19.3°C 52.9°F11.6°C 61% 9.0 mph S14.5 kmh S 18.0 mph29.0 kmh 29.95 in1014.2 mb 0.00 in0.0 mm 0.00 in0.0 mm 0.00 in0.0 mm
02:50 PM 67.5°F19.7°C 54.9°F12.7°C 64% 9.0 mph S14.5 kmh S 20.0 mph32.2 kmh 29.95 in1014.2 mb 0.00 in0.0 mm 0.00 in0.0 mm 0.00 in0.0 mm
02:45 PM 67.6°F19.8°C 53.3°F11.8°C 60% 9.0 mph S14.5 kmh S 20.0 mph32.2 kmh 29.95 in1014.2 mb 0.00 in0.0 mm 0.00 in0.0 mm 0.00 in0.0 mm
02:40 PM 68.5°F20.3°C 55.0°F12.8°C 62% 10.0 mph S16.1 kmh S 17.0 mph27.4 kmh 29.95 in1014.2 mb 0.00 in0.0 mm 0.00 in0.0 mm 0.00 in0.0 mm
02:35 PM 68.5°F20.3°C 54.1°F12.3°C 60% 10.0 mph S16.1 kmh S 17.0 mph27.4 kmh 29.95 in1014.2 mb 0.00 in0.0 mm 0.00 in0.0 mm 0.00 in0.0 mm
02:30 PM 68.5°F20.3°C 54.6°F12.6°C 61% 10.0 mph S16.1 kmh S 18.0 mph29.0 kmh 29.95 in1014.2 mb 0.00 in0.0 mm 0.00 in0.0 mm 0.00 in0.0 mm
02:25 PM 68.2°F20.1°C 54.2°F12.3°C 61% 11.0 mph S17.7 kmh S 18.0 mph29.0 kmh 29.95 in1014.2 mb 0.00 in0.0 mm 0.00 in0.0 mm 0.00 in0.0 mm
02:20 PM 68.2°F20.1°C 53.8°F12.1°C 60% 10.0 mph S16.1 kmh S 24.0 mph38.6 kmh 29.95 in1014.2 mb 0.00 in0.0 mm 0.00 in0.0 mm 0.00 in0.0 mm
02:15 PM 67.8°F19.9°C 53.0°F11.7°C 59% 9.0 mph S14.5 kmh S 24.0 mph38.6 kmh 29.95 in1014.2 mb 0.00 in0.0 mm 0.00 in0.0 mm 0.00 in0.0 mm
02:10 PM 67.6°F19.8°C 53.7°F12.1°C 61% 9.0 mph S14.5 kmh S 19.0 mph30.6 kmh 29.95 in1014.2 mb 0.00 in0.0 mm 0.00 in0.0 mm 0.00 in0.0 mm
02:05 PM 68.5°F20.3°C 54.1°F12.3°C 60% 10.0 mph S16.1 kmh S 19.0 mph30.6 kmh 29.95 in1014.2 mb 0.00 in0.0 mm 0.00 in0.0 mm 0.00 in0.0 mm
02:00 PM 69.1°F20.6°C 54.6°F12.6°C 60% 10.0 mph S16.1 kmh S 17.0 mph27.4 kmh 29.95 in1014.2 mb 0.00 in0.0 mm 0.00 in0.0 mm 0.00 in0.0 mm
01:55 PM 69.1°F20.6°C 55.1°F12.8°C 61% 9.0 mph S14.5 kmh S 17.0 mph27.4 kmh 29.95 in1014.2 mb 0.00 in0.0 mm 0.00 in0.0 mm 0.00 in0.0 mm
01:50 PM 69.1°F20.6°C 54.6°F12.6°C 60% 9.0 mph S14.5 kmh S 17.0 mph27.4 kmh 29.95 in1014.2 mb 0.00 in0.0 mm 0.00 in0.0 mm 0.00 in0.0 mm
01:45 PM 69.1°F20.6°C 55.5°F13.1°C 62% 10.0 mph S16.1 kmh S 17.0 mph27.4 kmh 29.95 in1014.2 mb 0.00 in0.0 mm 0.00 in0.0 mm 0.00 in0.0 mm
01:40 PM 68.9°F20.5°C 54.9°F12.7°C 61% 10.0 mph S16.1 kmh S 22.0 mph35.4 kmh 29.95 in1014.2 mb 0.00 in0.0 mm 0.00 in0.0 mm 0.00 in0.0 mm
01:35 PM 68.7°F20.4°C 55.2°F12.9°C 62% 10.0 mph S16.1 kmh S 22.0 mph35.4 kmh 29.95 in1014.2 mb 0.00 in0.0 mm 0.00 in0.0 mm 0.00 in0.0 mm
01:30 PM 68.4°F20.2°C 54.4°F12.4°C 61% 10.0 mph S16.1 kmh S 18.0 mph29.0 kmh 29.95 in1014.2 mb 0.00 in0.0 mm 0.00 in0.0 mm 0.00 in0.0 mm
01:25 PM 68.4°F20.2°C 54.4°F12.4°C 61% 10.0 mph S16.1 kmh S 17.0 mph27.4 kmh 29.96 in1014.6 mb 0.00 in0.0 mm 0.00 in0.0 mm 0.00 in0.0 mm
01:20 PM 68.4°F20.2°C 54.4°F12.4°C 61% 9.0 mph S14.5 kmh S 17.0 mph27.4 kmh 29.96 in1014.6 mb 0.00 in0.0 mm 0.00 in0.0 mm 0.00 in0.0 mm
01:15 PM 68.2°F20.1°C 54.7°F12.6°C 62% 9.0 mph S14.5 kmh S 19.0 mph30.6 kmh 29.96 in1014.6 mb 0.00 in0.0 mm 0.00 in0.0 mm 0.00 in0.0 mm
01:10 PM 68.4°F20.2°C 54.8°F12.7°C 62% 10.0 mph S16.1 kmh S 19.0 mph30.6 kmh 29.96 in1014.6 mb 0.00 in0.0 mm 0.00 in0.0 mm 0.00 in0.0 mm
01:05 PM 68.0°F20.0°C 54.9°F12.7°C 63% 11.0 mph S17.7 kmh S 19.0 mph30.6 kmh 29.96 in1014.6 mb 0.00 in0.0 mm 0.00 in0.0 mm 0.00 in0.0 mm
01:00 PM 67.6°F19.8°C 54.2°F12.3°C 62% 11.0 mph SSE17.7 kmh SSE 18.0 mph29.0 kmh 29.96 in1014.6 mb 0.00 in0.0 mm 0.00 in0.0 mm 0.00 in0.0 mm
12:55 PM 67.3°F19.6°C 54.7°F12.6°C 64% 10.0 mph SSE16.1 kmh SSE 26.0 mph41.8 kmh 29.96 in1014.6 mb 0.00 in0.0 mm 0.00 in0.0 mm 0.00 in0.0 mm
12:50 PM 67.5°F19.7°C 54.4°F12.4°C 63% 10.0 mph S16.1 kmh S 26.0 mph41.8 kmh 29.96 in1014.6 mb 0.00 in0.0 mm 0.00 in0.0 mm 0.00 in0.0 mm
12:45 PM 66.9°F19.4°C 54.3°F12.4°C 64% 10.0 mph SSE16.1 kmh SSE 23.0 mph37.0 kmh 29.96 in1014.6 mb 0.00 in0.0 mm 0.00 in0.0 mm 0.00 in0.0 mm
12:40 PM 66.4°F19.1°C 53.0°F11.7°C 62% 9.0 mph SSE14.5 kmh SSE 23.0 mph37.0 kmh 29.96 in1014.6 mb 0.00 in0.0 mm 0.00 in0.0 mm 0.00 in0.0 mm
12:35 PM 66.0°F18.9°C 52.2°F11.2°C 61% 9.0 mph S14.5 kmh S 15.0 mph24.1 kmh 29.96 in1014.6 mb 0.00 in0.0 mm 0.00 in0.0 mm 0.00 in0.0 mm
12:30 PM 65.7°F18.7°C 52.3°F11.3°C 62% 10.0 mph SSE16.1 kmh SSE 18.0 mph29.0 kmh 29.96 in1014.6 mb 0.00 in0.0 mm 0.00 in0.0 mm 0.00 in0.0 mm
12:25 PM 65.5°F18.6°C 52.1°F11.2°C 62% 10.0 mph SSE16.1 kmh SSE 18.0 mph29.0 kmh 29.96 in1014.6 mb 0.00 in0.0 mm 0.00 in0.0 mm 0.00 in0.0 mm
12:20 PM 64.4°F18.0°C 51.1°F10.6°C 62% 10.0 mph SE16.1 kmh SE 17.0 mph27.4 kmh 29.96 in1014.6 mb 0.00 in0.0 mm 0.00 in0.0 mm 0.00 in0.0 mm
12:15 PM 64.8°F18.2°C 51.4°F10.8°C 62% 10.0 mph SSE16.1 kmh SSE 17.0 mph27.4 kmh 29.96 in1014.6 mb 0.00 in0.0 mm 0.00 in0.0 mm 0.00 in0.0 mm
12:10 PM 65.3°F18.5°C 52.4°F11.3°C 63% 11.0 mph SSE17.7 kmh SSE 17.0 mph27.4 kmh 29.96 in1014.6 mb 0.00 in0.0 mm 0.00 in0.0 mm 0.00 in0.0 mm
12:05 PM 64.9°F18.3°C 52.0°F11.1°C 63% 11.0 mph SSE17.7 kmh SSE 20.0 mph32.2 kmh 29.97 in1014.9 mb 0.00 in0.0 mm 0.00 in0.0 mm 0.00 in0.0 mm
12:00 PM 64.0°F17.8°C 51.6°F10.9°C 64% 10.0 mph SSE16.1 kmh SSE 20.0 mph32.2 kmh 29.97 in1014.9 mb 0.00 in0.0 mm 0.00 in0.0 mm 0.00 in0.0 mm
11:55 AM 64.4°F18.0°C 51.5°F10.8°C 63% 10.0 mph SSE16.1 kmh SSE 19.0 mph30.6 kmh 29.97 in1014.9 mb 0.00 in0.0 mm 0.00 in0.0 mm 0.00 in0.0 mm
11:50 AM 64.6°F18.1°C 52.5°F11.4°C 65% 10.0 mph SSE16.1 kmh SSE 21.0 mph33.8 kmh 29.97 in1014.9 mb 0.00 in0.0 mm 0.00 in0.0 mm 0.00 in0.0 mm
11:45 AM 64.0°F17.8°C 51.2°F10.7°C 63% 9.0 mph SSE14.5 kmh SSE 21.0 mph33.8 kmh 29.97 in1014.9 mb 0.00 in0.0 mm 0.00 in0.0 mm 0.00 in0.0 mm
11:40 AM 63.9°F17.7°C 52.3°F11.3°C 66% 9.0 mph SSE14.5 kmh SSE 17.0 mph27.4 kmh 29.97 in1014.9 mb 0.00 in0.0 mm 0.00 in0.0 mm 0.00 in0.0 mm
11:35 AM 63.1°F17.3°C 50.8°F10.4°C 64% 8.0 mph SSE12.9 kmh SSE 17.0 mph27.4 kmh 29.97 in1014.9 mb 0.00 in0.0 mm 0.00 in0.0 mm 0.00 in0.0 mm
11:30 AM 63.1°F17.3°C 51.2°F10.7°C 65% 8.0 mph S12.9 kmh S 16.0 mph25.7 kmh 29.97 in1014.9 mb 0.00 in0.0 mm 0.00 in0.0 mm 0.00 in0.0 mm
11:25 AM 63.0°F17.2°C 51.8°F11.0°C 67% 9.0 mph S14.5 kmh S 15.0 mph24.1 kmh 29.97 in1014.9 mb 0.00 in0.0 mm 0.00 in0.0 mm 0.00 in0.0 mm
11:20 AM 62.6°F17.0°C 51.1°F10.6°C 66% 10.0 mph SSE16.1 kmh SSE 19.0 mph30.6 kmh 29.97 in1014.9 mb 0.00 in0.0 mm 0.00 in0.0 mm 0.00 in0.0 mm
11:15 AM 62.1°F16.7°C 50.2°F10.1°C 65% 9.0 mph SSE14.5 kmh SSE 19.0 mph30.6 kmh 29.97 in1014.9 mb 0.00 in0.0 mm 0.00 in0.0 mm 0.00 in0.0 mm
11:10 AM 61.9°F16.6°C 50.4°F10.2°C 66% 9.0 mph SSE14.5 kmh SSE 16.0 mph25.7 kmh 29.97 in1014.9 mb 0.00 in0.0 mm 0.00 in0.0 mm 0.00 in0.0 mm
11:05 AM 61.9°F16.6°C 49.6°F9.8°C 64% 9.0 mph SSE14.5 kmh SSE 17.0 mph27.4 kmh 29.97 in1014.9 mb 0.00 in0.0 mm 0.00 in0.0 mm 0.00 in0.0 mm
11:00 AM 62.1°F16.7°C 50.2°F10.1°C 65% 9.0 mph SSE14.5 kmh SSE 17.0 mph27.4 kmh 29.97 in1014.9 mb 0.00 in0.0 mm 0.00 in0.0 mm 0.00 in0.0 mm
10:55 AM 62.1°F16.7°C 50.2°F10.1°C 65% 8.0 mph SSE12.9 kmh SSE 14.0 mph22.5 kmh 29.98 in1015.2 mb 0.00 in0.0 mm 0.00 in0.0 mm 0.00 in0.0 mm
10:50 AM 62.2°F16.8°C 50.7°F10.4°C 66% 7.0 mph SSE11.3 kmh SSE 14.0 mph22.5 kmh 29.97 in1014.9 mb 0.00 in0.0 mm 0.00 in0.0 mm 0.00 in0.0 mm
10:45 AM 62.8°F17.1°C 50.8°F10.4°C 65% 7.0 mph SSE11.3 kmh SSE 16.0 mph25.7 kmh 29.97 in1014.9 mb 0.00 in0.0 mm 0.00 in0.0 mm 0.00 in0.0 mm
10:40 AM 62.2°F16.8°C 51.1°F10.6°C 67% 7.0 mph SSE11.3 kmh SSE 16.0 mph25.7 kmh 29.97 in1014.9 mb 0.00 in0.0 mm 0.00 in0.0 mm 0.00 in0.0 mm
10:35 AM 62.2°F16.8°C 51.1°F10.6°C 67% 8.0 mph SSE12.9 kmh SSE 15.0 mph24.1 kmh 29.97 in1014.9 mb 0.00 in0.0 mm 0.00 in0.0 mm 0.00 in0.0 mm
10:30 AM 62.2°F16.8°C 51.1°F10.6°C 67% 9.0 mph SSE14.5 kmh SSE 15.0 mph24.1 kmh 29.97 in1014.9 mb 0.00 in0.0 mm 0.00 in0.0 mm 0.00 in0.0 mm
10:25 AM 62.2°F16.8°C 50.7°F10.4°C 66% 9.0 mph SE14.5 kmh SE 19.0 mph30.6 kmh 29.97 in1014.9 mb 0.00 in0.0 mm 0.00 in0.0 mm 0.00 in0.0 mm
10:20 AM 61.3°F16.3°C 49.5°F9.7°C 65% 8.0 mph SE12.9 kmh SE 19.0 mph30.6 kmh 29.97 in1014.9 mb 0.00 in0.0 mm 0.00 in0.0 mm 0.00 in0.0 mm
10:15 AM 61.2°F16.2°C 50.1°F10.1°C 67% 7.0 mph SSE11.3 kmh SSE 14.0 mph22.5 kmh 29.97 in1014.9 mb 0.00 in0.0 mm 0.00 in0.0 mm 0.00 in0.0 mm
10:10 AM 60.4°F15.8°C 49.8°F9.9°C 68% 6.0 mph SSE9.7 kmh SSE 16.0 mph25.7 kmh 29.98 in1015.2 mb 0.00 in0.0 mm 0.00 in0.0 mm 0.00 in0.0 mm
10:05 AM 60.1°F15.6°C 49.5°F9.7°C 68% 6.0 mph S9.7 kmh S 16.0 mph25.7 kmh 29.98 in1015.2 mb 0.00 in0.0 mm 0.00 in0.0 mm 0.00 in0.0 mm
10:00 AM 59.7°F15.4°C 49.1°F9.5°C 68% 6.0 mph S9.7 kmh S 12.0 mph19.3 kmh 29.98 in1015.2 mb 0.00 in0.0 mm 0.00 in0.0 mm 0.00 in0.0 mm
09:55 AM 59.7°F15.4°C 49.5°F9.7°C 69% 7.0 mph S11.3 kmh S 12.0 mph19.3 kmh 29.98 in1015.2 mb 0.00 in0.0 mm 0.00 in0.0 mm 0.00 in0.0 mm
09:50 AM 59.7°F15.4°C 49.9°F9.9°C 70% 7.0 mph S11.3 kmh S 15.0 mph24.1 kmh 29.97 in1014.9 mb 0.00 in0.0 mm 0.00 in0.0 mm 0.00 in0.0 mm
09:45 AM 60.1°F15.6°C 49.5°F9.7°C 68% 7.0 mph S11.3 kmh S 15.0 mph24.1 kmh 29.98 in1015.2 mb 0.00 in0.0 mm 0.00 in0.0 mm 0.00 in0.0 mm
09:40 AM 60.1°F15.6°C 50.6°F10.3°C 71% 7.0 mph S11.3 kmh S 15.0 mph24.1 kmh 29.97 in1014.9 mb 0.00 in0.0 mm 0.00 in0.0 mm 0.00 in0.0 mm
09:35 AM 59.4°F15.2°C 49.2°F9.6°C 69% 6.0 mph S9.7 kmh S 15.0 mph24.1 kmh 29.97 in1014.9 mb 0.00 in0.0 mm 0.00 in0.0 mm 0.00 in0.0 mm
09:30 AM 58.8°F14.9°C 48.7°F9.3°C 69% 6.0 mph S9.7 kmh S 13.0 mph20.9 kmh 29.97 in1014.9 mb 0.00 in0.0 mm 0.00 in0.0 mm 0.00 in0.0 mm
09:25 AM 58.6°F14.8°C 49.3°F9.6°C 71% 7.0 mph S11.3 kmh S 12.0 mph19.3 kmh 29.97 in1014.9 mb 0.00 in0.0 mm 0.00 in0.0 mm 0.00 in0.0 mm
09:20 AM 58.5°F14.7°C 48.7°F9.3°C 70% 6.0 mph SSE9.7 kmh SSE 14.0 mph22.5 kmh 29.97 in1014.9 mb 0.00 in0.0 mm 0.00 in0.0 mm 0.00 in0.0 mm
09:15 AM 58.5°F14.7°C 48.3°F9.1°C 69% 6.0 mph S9.7 kmh S 14.0 mph22.5 kmh 29.97 in1014.9 mb 0.00 in0.0 mm 0.00 in0.0 mm 0.00 in0.0 mm
09:10 AM 58.6°F14.8°C 49.3°F9.6°C 71% 5.0 mph S8.0 kmh S 12.0 mph19.3 kmh 29.97 in1014.9 mb 0.00 in0.0 mm 0.00 in0.0 mm 0.00 in0.0 mm
09:05 AM 58.5°F14.7°C 48.3°F9.1°C 69% 5.0 mph S8.0 kmh S 12.0 mph19.3 kmh 29.97 in1014.9 mb 0.00 in0.0 mm 0.00 in0.0 mm 0.00 in0.0 mm
09:00 AM 58.6°F14.8°C 48.9°F9.4°C 70% 5.0 mph S8.0 kmh S 8.0 mph12.9 kmh 29.96 in1014.6 mb 0.00 in0.0 mm 0.00 in0.0 mm 0.00 in0.0 mm
08:55 AM 58.8°F14.9°C 49.1°F9.5°C 70% 5.0 mph S8.0 kmh S 8.0 mph12.9 kmh 29.96 in1014.6 mb 0.00 in0.0 mm 0.00 in0.0 mm 0.00 in0.0 mm
08:50 AM 58.8°F14.9°C 49.1°F9.5°C 70% 6.0 mph S9.7 kmh S 9.0 mph14.5 kmh 29.96 in1014.6 mb 0.00 in0.0 mm 0.00 in0.0 mm 0.00 in0.0 mm
08:45 AM 58.6°F14.8°C 49.3°F9.6°C 71% 6.0 mph SSE9.7 kmh SSE 11.0 mph17.7 kmh 29.96 in1014.6 mb 0.00 in0.0 mm 0.00 in0.0 mm 0.00 in0.0 mm
08:40 AM 58.5°F14.7°C 48.3°F9.1°C 69% 7.0 mph SSE11.3 kmh SSE 13.0 mph20.9 kmh 29.96 in1014.6 mb 0.00 in0.0 mm 0.00 in0.0 mm 0.00 in0.0 mm
08:35 AM 58.5°F14.7°C 48.7°F9.3°C 70% 7.0 mph SSE11.3 kmh SSE 15.0 mph24.1 kmh 29.96 in1014.6 mb 0.00 in0.0 mm 0.00 in0.0 mm 0.00 in0.0 mm
08:30 AM 58.6°F14.8°C 48.1°F8.9°C 68% 7.0 mph SSE11.3 kmh SSE 15.0 mph24.1 kmh 29.96 in1014.6 mb 0.00 in0.0 mm 0.00 in0.0 mm 0.00 in0.0 mm
08:25 AM 58.8°F14.9°C 49.1°F9.5°C 70% 7.0 mph SSE11.3 kmh SSE 13.0 mph20.9 kmh 29.96 in1014.6 mb 0.00 in0.0 mm 0.00 in0.0 mm 0.00 in0.0 mm
08:20 AM 58.3°F14.6°C 48.2°F9.0°C 69% 7.0 mph SE11.3 kmh SE 13.0 mph20.9 kmh 29.96 in1014.6 mb 0.00 in0.0 mm 0.00 in0.0 mm 0.00 in0.0 mm
08:15 AM 57.7°F14.3°C 48.0°F8.9°C 70% 8.0 mph SE12.9 kmh SE 14.0 mph22.5 kmh 29.96 in1014.6 mb 0.00 in0.0 mm 0.00 in0.0 mm 0.00 in0.0 mm
08:10 AM 57.6°F14.2°C 47.8°F8.8°C 70% 8.0 mph SSE12.9 kmh SSE 14.0 mph22.5 kmh 29.96 in1014.6 mb 0.00 in0.0 mm 0.00 in0.0 mm 0.00 in0.0 mm
08:05 AM 57.7°F14.3°C 47.6°F8.7°C 69% 7.0 mph SSE11.3 kmh SSE 14.0 mph22.5 kmh 29.96 in1014.6 mb 0.00 in0.0 mm 0.00 in0.0 mm 0.00 in0.0 mm
08:00 AM 58.3°F14.6°C 48.5°F9.2°C 70% 7.0 mph SSE11.3 kmh SSE 14.0 mph22.5 kmh 29.96 in1014.6 mb 0.00 in0.0 mm 0.00 in0.0 mm 0.00 in0.0 mm
07:55 AM 58.5°F14.7°C 48.3°F9.1°C 69% 7.0 mph SSE11.3 kmh SSE 13.0 mph20.9 kmh 29.96 in1014.6 mb 0.00 in0.0 mm 0.00 in0.0 mm 0.00 in0.0 mm
07:50 AM 58.3°F14.6°C 48.5°F9.2°C 70% 6.0 mph SSE9.7 kmh SSE 13.0 mph20.9 kmh 29.95 in1014.2 mb 0.00 in0.0 mm 0.00 in0.0 mm 0.00 in0.0 mm
07:45 AM 57.9°F14.4°C 48.2°F9.0°C 70% 6.0 mph SSE9.7 kmh SSE 11.0 mph17.7 kmh 29.95 in1014.2 mb 0.00 in0.0 mm 0.00 in0.0 mm 0.00 in0.0 mm
07:40 AM 57.6°F14.2°C 48.6°F9.2°C 72% 6.0 mph SSE9.7 kmh SSE 11.0 mph17.7 kmh 29.95 in1014.2 mb 0.00 in0.0 mm 0.00 in0.0 mm 0.00 in0.0 mm
07:35 AM 56.8°F13.8°C 47.9°F8.8°C 72% 5.0 mph SSE8.0 kmh SSE 11.0 mph17.7 kmh 29.95 in1014.2 mb 0.00 in0.0 mm 0.00 in0.0 mm 0.00 in0.0 mm
07:30 AM 56.1°F13.4°C 47.2°F8.4°C 72% 4.0 mph SSE6.4 kmh SSE 11.0 mph17.7 kmh 29.95 in1014.2 mb 0.00 in0.0 mm 0.00 in0.0 mm 0.00 in0.0 mm
07:25 AM 55.8°F13.2°C 47.2°F8.4°C 73% 2.0 mph SSE3.2 kmh SSE 10.0 mph16.1 kmh 29.96 in1014.6 mb 0.00 in0.0 mm 0.00 in0.0 mm 0.00 in0.0 mm
07:20 AM 55.2°F12.9°C 47.4°F8.6°C 75% 1.0 mph SSE1.6 kmh SSE 6.0 mph9.7 kmh 29.96 in1014.6 mb 0.00 in0.0 mm 0.00 in0.0 mm 0.00 in0.0 mm
07:15 AM 55.0°F12.8°C 46.9°F8.3°C 74% 1.0 mph S1.6 kmh S 6.0 mph9.7 kmh 29.96 in1014.6 mb 0.00 in0.0 mm 0.00 in0.0 mm 0.00 in0.0 mm
07:10 AM 54.5°F12.5°C 47.1°F8.4°C 76% Calm Calm 3.0 mph4.8 kmh 29.96 in1014.6 mb 0.00 in0.0 mm 0.00 in0.0 mm 0.00 in0.0 mm
07:05 AM 54.1°F12.3°C 46.7°F8.2°C 76% 1.0 mph S1.6 kmh S 2.0 mph3.2 kmh 29.96 in1014.6 mb 0.00 in0.0 mm 0.00 in0.0 mm 0.00 in0.0 mm
07:00 AM 54.0°F12.2°C 47.3°F8.5°C 78% 2.0 mph SSW3.2 kmh SSW 4.0 mph6.4 kmh 29.96 in1014.6 mb 0.00 in0.0 mm 0.00 in0.0 mm 0.00 in0.0 mm
06:55 AM 53.8°F12.1°C 46.7°F8.2°C 77% 2.0 mph SW3.2 kmh SW 4.0 mph6.4 kmh 29.96 in1014.6 mb 0.00 in0.0 mm 0.00 in0.0 mm 0.00 in0.0 mm
06:50 AM 53.8°F12.1°C 46.4°F8.0°C 76% 1.0 mph SW1.6 kmh SW 4.0 mph6.4 kmh 29.96 in1014.6 mb 0.00 in0.0 mm 0.00 in0.0 mm 0.00 in0.0 mm
06:40 AM 53.8°F12.1°C 46.4°F8.0°C 76% 2.0 mph SSE3.2 kmh SSE 6.0 mph9.7 kmh 29.96 in1014.6 mb 0.00 in0.0 mm 0.00 in0.0 mm 0.00 in0.0 mm
06:35 AM 53.7°F12.1°C 46.3°F7.9°C 76% 2.0 mph SSE3.2 kmh SSE 6.0 mph9.7 kmh 29.96 in1014.6 mb 0.00 in0.0 mm 0.00 in0.0 mm 0.00 in0.0 mm
06:30 AM 53.5°F11.9°C 46.5°F8.1°C 77% 2.0 mph SSE3.2 kmh SSE 4.0 mph6.4 kmh 29.96 in1014.6 mb 0.00 in0.0 mm 0.00 in0.0 mm 0.00 in0.0 mm
06:25 AM 53.3°F11.8°C 46.3°F7.9°C 77% 1.0 mph S1.6 kmh S 3.0 mph4.8 kmh 29.95 in1014.2 mb 0.00 in0.0 mm 0.00 in0.0 mm 0.00 in0.0 mm
06:20 AM 53.3°F11.8°C 46.3°F7.9°C 77% 1.0 mph SSW1.6 kmh SSW 3.0 mph4.8 kmh 29.95 in1014.2 mb 0.00 in0.0 mm 0.00 in0.0 mm 0.00 in0.0 mm
06:15 AM 53.3°F11.8°C 46.3°F7.9°C 77% 1.0 mph SSW1.6 kmh SSW 3.0 mph4.8 kmh 29.96 in1014.6 mb 0.00 in0.0 mm 0.00 in0.0 mm 0.00 in0.0 mm
06:10 AM 53.2°F11.8°C 46.2°F7.9°C 77% 1.0 mph S1.6 kmh S 2.0 mph3.2 kmh 29.95 in1014.2 mb 0.00 in0.0 mm 0.00 in0.0 mm 0.00 in0.0 mm
06:05 AM 52.8°F11.6°C 46.1°F7.8°C 78% 1.0 mph S1.6 kmh S 3.0 mph4.8 kmh 29.95 in1014.2 mb 0.00 in0.0 mm 0.00 in0.0 mm 0.00 in0.0 mm
06:00 AM 52.5°F11.4°C 45.8°F7.7°C 78% Calm Calm 3.0 mph4.8 kmh 29.95 in1014.2 mb 0.00 in0.0 mm 0.00 in0.0 mm 0.00 in0.0 mm
05:55 AM 52.3°F11.3°C 45.6°F7.6°C 78% Calm Calm 3.0 mph4.8 kmh 29.95 in1014.2 mb 0.00 in0.0 mm 0.00 in0.0 mm 0.00 in0.0 mm
05:50 AM 51.9°F11.1°C 45.6°F7.6°C 79% Calm Calm 3.0 mph4.8 kmh 29.95 in1014.2 mb 0.00 in0.0 mm 0.00 in0.0 mm 0.00 in0.0 mm
05:45 AM 51.5°F10.8°C 45.2°F7.3°C 79% Calm Calm 2.0 mph3.2 kmh 29.95 in1014.2 mb 0.00 in0.0 mm 0.00 in0.0 mm 0.00 in0.0 mm
05:40 AM 51.3°F10.7°C 45.3°F7.4°C 80% Calm Calm 3.0 mph4.8 kmh 29.95 in1014.2 mb 0.00 in0.0 mm 0.00 in0.0 mm 0.00 in0.0 mm
05:35 AM 51.1°F10.6°C 45.1°F7.3°C 80% 1.0 mph W1.6 kmh W 4.0 mph6.4 kmh 29.95 in1014.2 mb 0.00 in0.0 mm 0.00 in0.0 mm 0.00 in0.0 mm
05:30 AM 50.4°F10.2°C 44.8°F7.1°C 81% 1.0 mph W1.6 kmh W 4.0 mph6.4 kmh 29.95 in1014.2 mb 0.00 in0.0 mm 0.00 in0.0 mm 0.00 in0.0 mm
05:25 AM 50.0°F10.0°C 45.0°F7.2°C 83% Calm Calm 2.0 mph3.2 kmh 29.95 in1014.2 mb 0.00 in0.0 mm 0.00 in0.0 mm 0.00 in0.0 mm
05:20 AM 49.9°F9.9°C 44.9°F7.2°C 83% Calm Calm 1.0 mph1.6 kmh 29.95 in1014.2 mb 0.00 in0.0 mm 0.00 in0.0 mm 0.00 in0.0 mm
05:15 AM 49.6°F9.8°C 44.6°F7.0°C 83% Calm Calm 5.0 mph8.0 kmh 29.95 in1014.2 mb 0.00 in0.0 mm 0.00 in0.0 mm 0.00 in0.0 mm
05:10 AM 49.5°F9.7°C 44.2°F6.8°C 82% 1.0 mph S1.6 kmh S 5.0 mph8.0 kmh 29.95 in1014.2 mb 0.00 in0.0 mm 0.00 in0.0 mm 0.00 in0.0 mm
05:05 AM 49.1°F9.5°C 44.2°F6.8°C 83% Calm Calm 3.0 mph4.8 kmh 29.95 in1014.2 mb 0.00 in0.0 mm 0.00 in0.0 mm 0.00 in0.0 mm
05:00 AM 48.7°F9.3°C 44.1°F6.7°C 84% Calm Calm -- 29.95 in1014.2 mb 0.00 in0.0 mm 0.00 in0.0 mm 0.00 in0.0 mm
04:55 AM 48.9°F9.4°C 44.0°F6.7°C 83% Calm Calm 1.0 mph1.6 kmh 29.95 in1014.2 mb 0.00 in0.0 mm 0.00 in0.0 mm 0.00 in0.0 mm
04:50 AM 49.2°F9.6°C 44.3°F6.8°C 83% Calm Calm 3.0 mph4.8 kmh 29.94 in1013.9 mb 0.00 in0.0 mm 0.00 in0.0 mm 0.00 in0.0 mm
04:45 AM 49.5°F9.7°C 44.2°F6.8°C 82% 1.0 mph SSW1.6 kmh SSW 3.0 mph4.8 kmh 29.95 in1014.2 mb 0.00 in0.0 mm 0.00 in0.0 mm 0.00 in0.0 mm
04:40 AM 49.6°F9.8°C 44.3°F6.8°C 82% Calm Calm 3.0 mph4.8 kmh 29.95 in1014.2 mb 0.00 in0.0 mm 0.00 in0.0 mm 0.00 in0.0 mm
04:35 AM 49.6°F9.8°C 44.0°F6.7°C 81% Calm Calm 3.0 mph4.8 kmh 29.95 in1014.2 mb 0.00 in0.0 mm 0.00 in0.0 mm 0.00 in0.0 mm
04:30 AM 49.6°F9.8°C 44.0°F6.7°C 81% Calm Calm 3.0 mph4.8 kmh 29.95 in1014.2 mb 0.00 in0.0 mm 0.00 in0.0 mm 0.00 in0.0 mm
04:25 AM 49.6°F9.8°C 44.0°F6.7°C 81% Calm Calm 3.0 mph4.8 kmh 29.95 in1014.2 mb 0.00 in0.0 mm 0.00 in0.0 mm 0.00 in0.0 mm
04:20 AM 49.2°F9.6°C 43.9°F6.6°C 82% Calm Calm 1.0 mph1.6 kmh 29.95 in1014.2 mb 0.00 in0.0 mm 0.00 in0.0 mm 0.00 in0.0 mm
04:15 AM 48.9°F9.4°C 44.0°F6.7°C 83% Calm Calm 1.0 mph1.6 kmh 29.95 in1014.2 mb 0.00 in0.0 mm 0.00 in0.0 mm 0.00 in0.0 mm
04:10 AM 48.7°F9.3°C 43.8°F6.6°C 83% Calm Calm 1.0 mph1.6 kmh 29.95 in1014.2 mb 0.00 in0.0 mm 0.00 in0.0 mm 0.00 in0.0 mm
04:05 AM 48.7°F9.3°C 43.5°F6.4°C 82% Calm Calm 2.0 mph3.2 kmh 29.95 in1014.2 mb 0.00 in0.0 mm 0.00 in0.0 mm 0.00 in0.0 mm
04:00 AM 48.9°F9.4°C 43.3°F6.3°C 81% Calm Calm 2.0 mph3.2 kmh 29.95 in1014.2 mb 0.00 in0.0 mm 0.00 in0.0 mm 0.00 in0.0 mm
03:55 AM 49.0°F9.4°C 43.4°F6.3°C 81% Calm Calm 1.0 mph1.6 kmh 29.94 in1013.9 mb 0.00 in0.0 mm 0.00 in0.0 mm 0.00 in0.0 mm
03:50 AM 49.3°F9.6°C 43.7°F6.5°C 81% Calm Calm 3.0 mph4.8 kmh 29.94 in1013.9 mb 0.00 in0.0 mm 0.00 in0.0 mm 0.00 in0.0 mm
03:45 AM 49.7°F9.8°C 43.8°F6.6°C 80% 1.0 mph SSW1.6 kmh SSW 3.0 mph4.8 kmh 29.95 in1014.2 mb 0.00 in0.0 mm 0.00 in0.0 mm 0.00 in0.0 mm
03:40 AM 50.3°F10.2°C 44.0°F6.7°C 79% 1.0 mph S1.6 kmh S 2.0 mph3.2 kmh 29.95 in1014.2 mb 0.00 in0.0 mm 0.00 in0.0 mm 0.00 in0.0 mm
03:35 AM 50.6°F10.3°C 44.3°F6.8°C 79% 1.0 mph SSE1.6 kmh SSE 5.0 mph8.0 kmh 29.95 in1014.2 mb 0.00 in0.0 mm 0.00 in0.0 mm 0.00 in0.0 mm
03:30 AM 50.8°F10.4°C 44.5°F6.9°C 79% 1.0 mph SSE1.6 kmh SSE 5.0 mph8.0 kmh 29.95 in1014.2 mb 0.00 in0.0 mm 0.00 in0.0 mm 0.00 in0.0 mm
03:25 AM 50.8°F10.4°C 44.2°F6.8°C 78% 2.0 mph SSE3.2 kmh SSE 5.0 mph8.0 kmh 29.95 in1014.2 mb 0.00 in0.0 mm 0.00 in0.0 mm 0.00 in0.0 mm
03:20 AM 51.0°F10.6°C 44.4°F6.9°C 78% 2.0 mph SSE3.2 kmh SSE 5.0 mph8.0 kmh 29.95 in1014.2 mb 0.00 in0.0 mm 0.00 in0.0 mm 0.00 in0.0 mm
03:15 AM 50.9°F10.5°C 44.6°F7.0°C 79% 2.0 mph SSE3.2 kmh SSE 5.0 mph8.0 kmh 29.95 in1014.2 mb 0.00 in0.0 mm 0.00 in0.0 mm 0.00 in0.0 mm
03:10 AM 50.8°F10.4°C 44.5°F6.9°C 79% 2.0 mph SE3.2 kmh SE 4.0 mph6.4 kmh 29.95 in1014.2 mb 0.00 in0.0 mm 0.00 in0.0 mm 0.00 in0.0 mm
03:05 AM 50.8°F10.4°C 44.5°F6.9°C 79% 2.0 mph SE3.2 kmh SE 4.0 mph6.4 kmh 29.95 in1014.2 mb 0.00 in0.0 mm 0.00 in0.0 mm 0.00 in0.0 mm
03:00 AM 50.6°F10.3°C 44.7°F7.1°C 80% 1.0 mph SE1.6 kmh SE 4.0 mph6.4 kmh 29.95 in1014.2 mb 0.00 in0.0 mm 0.00 in0.0 mm 0.00 in0.0 mm
02:55 AM 50.5°F10.3°C 44.6°F7.0°C 80% 1.0 mph SE1.6 kmh SE 4.0 mph6.4 kmh 29.95 in1014.2 mb 0.00 in0.0 mm 0.00 in0.0 mm 0.00 in0.0 mm
02:50 AM 50.1°F10.1°C 44.8°F7.1°C 82% Calm Calm 4.0 mph6.4 kmh 29.95 in1014.2 mb 0.00 in0.0 mm 0.00 in0.0 mm 0.00 in0.0 mm
02:45 AM 49.8°F9.9°C 44.5°F6.9°C 82% Calm Calm -- 29.95 in1014.2 mb 0.00 in0.0 mm 0.00 in0.0 mm 0.00 in0.0 mm
02:40 AM 49.8°F9.9°C 44.8°F7.1°C 83% Calm Calm -- 29.95 in1014.2 mb 0.00 in0.0 mm 0.00 in0.0 mm 0.00 in0.0 mm
02:35 AM 50.0°F10.0°C 44.7°F7.1°C 82% Calm Calm -- 29.95 in1014.2 mb 0.00 in0.0 mm 0.00 in0.0 mm 0.00 in0.0 mm
02:30 AM 50.0°F10.0°C 44.4°F6.9°C 81% Calm Calm -- 29.95 in1014.2 mb 0.00 in0.0 mm 0.00 in0.0 mm 0.00 in0.0 mm
02:25 AM 49.9°F9.9°C 44.6°F7.0°C 82% Calm Calm -- 29.95 in1014.2 mb 0.00 in0.0 mm 0.00 in0.0 mm 0.00 in0.0 mm
02:20 AM 49.8°F9.9°C 44.5°F6.9°C 82% Calm Calm -- 29.95 in1014.2 mb 0.00 in0.0 mm 0.00 in0.0 mm 0.00 in0.0 mm
02:15 AM 49.7°F9.8°C 44.7°F7.1°C 83% Calm Calm 3.0 mph4.8 kmh 29.95 in1014.2 mb 0.00 in0.0 mm 0.00 in0.0 mm 0.00 in0.0 mm
02:10 AM 49.6°F9.8°C 44.6°F7.0°C 83% Calm Calm 3.0 mph4.8 kmh 29.95 in1014.2 mb 0.00 in0.0 mm 0.00 in0.0 mm 0.00 in0.0 mm
02:05 AM 49.4°F9.7°C 44.5°F6.9°C 83% Calm Calm 1.0 mph1.6 kmh 29.95 in1014.2 mb 0.00 in0.0 mm 0.00 in0.0 mm 0.00 in0.0 mm
02:00 AM 49.3°F9.6°C 44.4°F6.9°C 83% Calm Calm 1.0 mph1.6 kmh 29.95 in1014.2 mb 0.00 in0.0 mm 0.00 in0.0 mm 0.00 in0.0 mm
01:55 AM 49.2°F9.6°C 44.6°F7.0°C 84% 1.0 mph S1.6 kmh S 1.0 mph1.6 kmh 29.95 in1014.2 mb 0.00 in0.0 mm 0.00 in0.0 mm 0.00 in0.0 mm
01:50 AM 49.2°F9.6°C 44.6°F7.0°C 84% 1.0 mph SSE1.6 kmh SSE 2.0 mph3.2 kmh 29.95 in1014.2 mb 0.00 in0.0 mm 0.00 in0.0 mm 0.00 in0.0 mm
01:45 AM 49.2°F9.6°C 44.6°F7.0°C 84% 1.0 mph SSE1.6 kmh SSE 3.0 mph4.8 kmh 29.95 in1014.2 mb 0.00 in0.0 mm 0.00 in0.0 mm 0.00 in0.0 mm
01:40 AM 49.1°F9.5°C 44.5°F6.9°C 84% 1.0 mph S1.6 kmh S 3.0 mph4.8 kmh 29.95 in1014.2 mb 0.00 in0.0 mm 0.00 in0.0 mm 0.00 in0.0 mm
01:35 AM 49.2°F9.6°C 44.9°F7.2°C 85% 1.0 mph S1.6 kmh S 2.0 mph3.2 kmh 29.95 in1014.2 mb 0.00 in0.0 mm 0.00 in0.0 mm 0.00 in0.0 mm
01:30 AM 49.3°F9.6°C 44.7°F7.1°C 84% 2.0 mph SSW3.2 kmh SSW 4.0 mph6.4 kmh 29.95 in1014.2 mb 0.00 in0.0 mm 0.00 in0.0 mm 0.00 in0.0 mm
01:25 AM 49.3°F9.6°C 44.7°F7.1°C 84% 2.0 mph SSW3.2 kmh SSW 4.0 mph6.4 kmh 29.95 in1014.2 mb 0.00 in0.0 mm 0.00 in0.0 mm 0.00 in0.0 mm
01:20 AM 49.0°F9.4°C 44.7°F7.1°C 85% 1.0 mph SSW1.6 kmh SSW 4.0 mph6.4 kmh 29.95 in1014.2 mb 0.00 in0.0 mm 0.00 in0.0 mm 0.00 in0.0 mm
01:15 AM 48.7°F9.3°C 44.7°F7.1°C 86% 2.0 mph SSW3.2 kmh SSW 4.0 mph6.4 kmh 29.95 in1014.2 mb 0.00 in0.0 mm 0.00 in0.0 mm 0.00 in0.0 mm
01:10 AM 47.6°F8.7°C 44.5°F6.9°C 89% Calm Calm 4.0 mph6.4 kmh 29.95 in1014.2 mb 0.00 in0.0 mm 0.00 in0.0 mm 0.00 in0.0 mm
01:05 AM 46.9°F8.3°C 43.8°F6.6°C 89% Calm Calm 1.0 mph1.6 kmh 29.96 in1014.6 mb 0.00 in0.0 mm 0.00 in0.0 mm 0.00 in0.0 mm
01:00 AM 46.8°F8.2°C 43.4°F6.3°C 88% Calm Calm -- 29.96 in1014.6 mb 0.00 in0.0 mm 0.00 in0.0 mm 0.00 in0.0 mm
12:55 AM 46.6°F8.1°C 43.2°F6.2°C 88% Calm Calm -- 29.96 in1014.6 mb 0.00 in0.0 mm 0.00 in0.0 mm 0.00 in0.0 mm
12:50 AM 46.5°F8.1°C 43.1°F6.2°C 88% Calm Calm -- 29.96 in1014.6 mb 0.00 in0.0 mm 0.00 in0.0 mm 0.00 in0.0 mm
12:45 AM 46.4°F8.0°C 43.0°F6.1°C 88% Calm Calm -- 29.96 in1014.6 mb 0.00 in0.0 mm 0.00 in0.0 mm 0.00 in0.0 mm
12:40 AM 46.4°F8.0°C 42.7°F5.9°C 87% Calm Calm -- 29.96 in1014.6 mb 0.00 in0.0 mm 0.00 in0.0 mm 0.00 in0.0 mm
12:35 AM 46.5°F8.1°C 42.8°F6.0°C 87% Calm Calm -- 29.96 in1014.6 mb 0.00 in0.0 mm 0.00 in0.0 mm 0.00 in0.0 mm
12:30 AM 46.6°F8.1°C 42.9°F6.1°C 87% Calm Calm -- 29.96 in1014.6 mb 0.00 in0.0 mm 0.00 in0.0 mm 0.00 in0.0 mm
12:25 AM 46.8°F8.2°C 43.4°F6.3°C 88% Calm Calm -- 29.96 in1014.6 mb 0.00 in0.0 mm 0.00 in0.0 mm 0.00 in0.0 mm
12:20 AM 46.9°F8.3°C 43.8°F6.6°C 89% Calm Calm -- 29.96 in1014.6 mb 0.00 in0.0 mm 0.00 in0.0 mm 0.00 in0.0 mm
12:15 AM 47.0°F8.3°C 43.6°F6.4°C 88% Calm Calm -- 29.97 in1014.9 mb 0.00 in0.0 mm 0.00 in0.0 mm 0.00 in0.0 mm
12:10 AM 47.3°F8.5°C 43.9°F6.6°C 88% Calm Calm -- 29.97 in1014.9 mb 0.00 in0.0 mm 0.00 in0.0 mm 0.00 in0.0 mm
12:05 AM 47.6°F8.7°C 43.9°F6.6°C 87% Calm Calm -- 29.97 in1014.9 mb 0.00 in0.0 mm 0.00 in0.0 mm 0.00 in0.0 mm
12:00 AM 47.8°F8.8°C 43.8°F6.6°C 86% Calm Calm -- 29.97 in1014.9 mb 0.00 in0.0 mm 0.00 in0.0 mm 0.00 in0.0 mm